Central Il Rgnl Arpt at Bloomington-Normal Airport
KBMI : now visible

Airfield :











YOU CAN JOIN US ON...

 
LOGIN :

Register | Disclaimer

   EN    FR    IT 

 









Legend :    VFR   Marginal VFR   IFR   Intensive IFR   Very Intensive IFR
Visi :
Ceiling :
>= 8 km
>= 3000ft
5 to 8 km
1000 to 3000 ft
1500m to 5 km
500 to 1000 ft
800 to 1500m
200 to 500 ft
< 800m
< 200 ft
Symbols :   Thunderstorms  Fog  Heavy snow  Heavy precipitations  Wind > 20 kt







- Airport Elevation : 871 ft
- IATA code : BMI


KBMI - Central Il Rgnl Arpt at Bloomington-Normal

CURRENT METAR :
  • 162156Z 04009KT 10SM CLR 27/20 A3009 RMK AO2 SLP181 T02720200

EXPIRED METARs :
  • 162056Z 04008KT 10SM CLR 28/20 A3009 RMK AO2 SLP182 T02780200 56008
  • 161956Z VRB05KT 10SM FEW034 28/21 A3010 RMK AO2 SLP184 T02830206

TAF KBMI
Valid from the 16 at 18:00 until the 17 at 18:00 UTC


161720Z 1618/1718 02009KT P6SM SCT018
FM170900 07005KT 3SM BR SCT250
FM171400 10005KT P6SM SCT250
No reported NOTAMs for that airfield.



MET'MAP, your aeronautical weather chart ! - Copyright ORBIFLY December 2007 - Disclaimer

ORBIFLY MET'MAP TEAM :

Programming & Development : Alexandra Zaïnal
Concept & Development : Baudouin d'Aumeries
Co-Development & Prog : Marc-Olivier Méhu
Technical & hardware support : Manuel Goepfert

Contact : metmap@orbifly.com




SOURCES & CREDITS :

   NOAA       Earth
Advisory